createdAt,value
2018-03-28T00:01:40.384Z,8.60
2018-03-28T00:04:09.263Z,9.03
2018-03-28T00:06:38.052Z,8.47
2018-03-28T00:09:06.867Z,9.60
2018-03-28T00:11:35.751Z,9.10
2018-03-28T00:14:04.644Z,8.67
2018-03-28T00:16:33.463Z,8.13
2018-03-28T00:19:02.270Z,8.00
2018-03-28T00:21:31.088Z,8.60
2018-03-28T00:23:59.895Z,8.63
2018-03-28T00:26:28.710Z,8.47
2018-03-28T00:28:57.526Z,8.13
2018-03-28T00:31:26.411Z,9.03
2018-03-28T00:33:55.291Z,8.20
2018-03-28T00:36:24.104Z,7.73
2018-03-28T00:38:52.982Z,8.20
2018-03-28T00:41:21.800Z,6.97
2018-03-28T00:43:50.595Z,8.10
2018-03-28T00:46:19.403Z,8.27
2018-03-28T00:48:48.265Z,7.60
2018-03-28T00:51:22.908Z,8.20
2018-03-28T00:53:51.711Z,7.93
2018-03-28T00:56:20.585Z,7.77
2018-03-28T00:58:49.390Z,7.90
2018-03-28T01:01:18.170Z,7.40
2018-03-28T01:03:47.063Z,7.43
2018-03-28T01:06:15.866Z,7.17
2018-03-28T01:08:44.655Z,8.00
2018-03-28T01:11:13.466Z,6.87
2018-03-28T01:13:42.270Z,7.00
2018-03-28T01:16:11.093Z,6.80
2018-03-28T01:18:39.883Z,7.03
2018-03-28T01:21:08.682Z,6.77
2018-03-28T01:23:37.503Z,6.27
2018-03-28T01:26:06.317Z,6.73
2018-03-28T01:28:35.103Z,7.33
2018-03-28T01:31:03.914Z,5.80
2018-03-28T01:33:32.699Z,6.10
2018-03-28T01:36:01.559Z,6.63
2018-03-28T01:38:30.378Z,6.13
2018-03-28T01:40:59.250Z,6.43
2018-03-28T01:43:28.070Z,6.50
2018-03-28T01:45:56.870Z,6.10
2018-03-28T01:48:25.734Z,5.97
2018-03-28T01:50:54.537Z,5.70
2018-03-28T01:53:23.419Z,6.30
2018-03-28T01:55:52.210Z,5.93
2018-03-28T01:58:21.015Z,5.57
2018-03-28T02:00:49.823Z,5.30
2018-03-28T02:03:18.610Z,5.90
2018-03-28T02:05:47.483Z,6.00
2018-03-28T02:08:16.275Z,5.40
2018-03-28T02:10:45.090Z,5.47
2018-03-28T02:13:13.897Z,5.00
2018-03-28T02:15:42.759Z,5.00
2018-03-28T02:18:11.546Z,4.87
2018-03-28T02:20:40.371Z,4.17
2018-03-28T02:23:09.230Z,4.80
2018-03-28T02:25:38.041Z,4.47
2018-03-28T02:28:06.817Z,4.60
2018-03-28T02:30:35.624Z,4.50
2018-03-28T02:33:04.415Z,4.20
2018-03-28T02:35:33.211Z,4.23
2018-03-28T02:38:02.008Z,3.73
2018-03-28T02:40:30.891Z,4.30
2018-03-28T02:42:59.694Z,4.10
2018-03-28T02:45:28.502Z,4.50
2018-03-28T02:47:57.282Z,4.27
2018-03-28T02:50:26.091Z,4.13
2018-03-28T02:52:54.882Z,4.30
2018-03-28T02:55:23.757Z,4.07
2018-03-28T02:57:52.565Z,3.67
2018-03-28T03:00:21.434Z,3.87
2018-03-28T03:02:50.217Z,3.43
2018-03-28T03:05:19.018Z,3.47
2018-03-28T03:07:47.915Z,3.43
2018-03-28T03:15:51.761Z,3.30
2018-03-28T03:18:20.564Z,3.10
2018-03-28T03:20:49.347Z,2.67
2018-03-28T03:23:18.227Z,2.93
2018-03-28T03:25:47.008Z,2.93
2018-03-28T03:28:15.824Z,2.90
2018-03-28T03:30:44.611Z,2.83
2018-03-28T03:33:13.398Z,2.93
2018-03-28T03:35:42.286Z,2.70
2018-03-28T03:38:11.094Z,2.93
2018-03-28T03:40:39.877Z,2.73
2018-03-28T03:43:08.775Z,2.90
2018-03-28T03:45:37.663Z,2.77
2018-03-28T03:48:06.463Z,2.90
2018-03-28T03:50:35.248Z,3.00
2018-03-28T03:53:04.050Z,3.30
2018-03-28T03:55:32.838Z,2.90
2018-03-28T03:58:02.386Z,3.30
2018-03-28T04:00:31.242Z,2.77
2018-03-28T04:03:00.139Z,2.87
2018-03-28T04:05:28.954Z,2.77
2018-03-28T04:07:57.743Z,2.77
2018-03-28T04:10:26.618Z,2.70
2018-03-28T04:12:55.420Z,2.33
2018-03-28T04:15:24.221Z,2.37
2018-03-28T04:17:53.026Z,2.10
2018-03-28T04:20:21.842Z,2.53
2018-03-28T04:22:50.704Z,2.67
2018-03-28T04:25:19.578Z,2.47
2018-03-28T04:27:48.432Z,2.50
2018-03-28T04:30:17.243Z,2.60
2018-03-28T04:32:46.039Z,2.80
2018-03-28T04:35:14.853Z,2.93
2018-03-28T04:37:44.376Z,2.60
2018-03-28T04:40:13.462Z,2.33
2018-03-28T04:42:42.250Z,2.63
2018-03-28T04:45:11.052Z,2.60
2018-03-28T04:47:39.834Z,2.27
2018-03-28T04:50:08.634Z,2.10
2018-03-28T04:55:19.562Z,1.90
2018-03-28T04:57:48.358Z,1.63
2018-03-28T05:00:17.166Z,2.03
2018-03-28T05:02:45.969Z,1.67
2018-03-28T05:05:14.823Z,2.10
2018-03-28T05:07:43.631Z,2.13
2018-03-28T05:10:12.988Z,2.70
2018-03-28T05:12:41.814Z,2.70
2018-03-28T05:15:10.635Z,2.67
2018-03-28T05:17:39.485Z,2.67
2018-03-28T05:20:08.300Z,2.60
2018-03-28T05:22:37.446Z,2.97
2018-03-28T05:25:06.206Z,2.77
2018-03-28T05:27:35.087Z,2.60
2018-03-28T05:30:03.916Z,3.00
2018-03-28T05:32:32.718Z,3.20
2018-03-28T05:35:01.531Z,3.13
2018-03-28T05:37:30.362Z,3.30
2018-03-28T05:39:59.141Z,3.27
2018-03-28T05:42:27.935Z,3.37
2018-03-28T05:44:56.757Z,4.07
2018-03-28T05:47:25.542Z,4.97
2018-03-28T05:49:54.352Z,4.43
2018-03-28T05:52:23.144Z,3.83
2018-03-28T05:54:51.957Z,3.83
2018-03-28T05:57:20.747Z,4.17
2018-03-28T05:59:49.559Z,3.93
2018-03-28T06:02:18.338Z,4.00
2018-03-28T06:04:47.157Z,3.80
2018-03-28T06:07:15.958Z,4.47
2018-03-28T06:09:44.770Z,4.00
2018-03-28T06:12:13.559Z,4.10
2018-03-28T06:14:42.364Z,3.87
2018-03-28T06:17:11.174Z,4.50
2018-03-28T06:19:39.978Z,4.33
2018-03-28T06:22:08.785Z,4.50
2018-03-28T06:24:37.566Z,4.03
2018-03-28T06:27:06.422Z,4.00
2018-03-28T06:29:35.244Z,4.00
2018-03-28T06:32:04.114Z,3.67
2018-03-28T06:34:32.907Z,4.50
2018-03-28T06:37:01.742Z,4.50
2018-03-28T06:39:30.607Z,4.93
2018-03-28T06:41:59.406Z,4.37
2018-03-28T06:44:28.206Z,4.37
2018-03-28T06:46:56.999Z,4.37
2018-03-28T06:49:25.807Z,4.60
2018-03-28T06:51:54.661Z,4.60
2018-03-28T06:54:23.557Z,4.47
2018-03-28T06:56:52.366Z,4.60
2018-03-28T06:59:21.151Z,4.30
2018-03-28T07:01:49.950Z,4.73
2018-03-28T07:04:18.751Z,4.57
2018-03-28T07:06:47.556Z,4.00
2018-03-28T07:09:16.368Z,4.03
2018-03-28T07:11:45.159Z,3.20
2018-03-28T07:14:13.965Z,3.27
2018-03-28T07:16:42.756Z,3.20
2018-03-28T07:19:11.590Z,3.10
2018-03-28T07:21:40.413Z,3.27
2018-03-28T07:24:09.197Z,3.50
2018-03-28T07:26:37.997Z,3.20
2018-03-28T07:29:06.794Z,3.00
2018-03-28T07:31:35.667Z,3.13
2018-03-28T07:34:04.466Z,3.30
2018-03-28T07:36:33.279Z,3.50
2018-03-28T07:39:02.062Z,3.10
2018-03-28T07:41:30.869Z,3.00
2018-03-28T07:43:59.731Z,3.20
2018-03-28T07:46:28.529Z,3.13
2018-03-28T07:48:57.319Z,3.17
2018-03-28T07:51:26.126Z,3.27
2018-03-28T07:53:54.932Z,2.87
2018-03-28T07:56:23.716Z,3.13
2018-03-28T07:58:52.523Z,3.07
2018-03-28T08:01:21.369Z,2.90
2018-03-28T08:03:50.188Z,3.13
2018-03-28T08:06:19.019Z,3.43
2018-03-28T08:08:47.838Z,2.87
2018-03-28T08:11:16.634Z,2.97
2018-03-28T08:13:45.456Z,3.43
2018-03-28T08:16:14.232Z,3.27
2018-03-28T08:18:43.036Z,3.20
2018-03-28T08:21:11.842Z,3.30
2018-03-28T08:23:40.675Z,3.50
2018-03-28T08:26:09.486Z,2.87
2018-03-28T08:28:38.295Z,3.53
2018-03-28T08:31:07.092Z,3.67
2018-03-28T08:33:35.983Z,3.77
2018-03-28T08:36:04.803Z,3.47
2018-03-28T08:38:33.606Z,3.47
2018-03-28T08:41:02.398Z,3.07
2018-03-28T08:43:31.230Z,3.00
2018-03-28T08:46:00.070Z,3.20
2018-03-28T08:48:28.863Z,3.43
2018-03-28T08:50:57.743Z,3.20
2018-03-28T08:53:26.536Z,2.87
2018-03-28T08:55:55.432Z,3.23
2018-03-28T08:58:24.243Z,3.13
2018-03-28T09:00:53.114Z,2.70
2018-03-28T09:03:21.940Z,2.53
2018-03-28T09:05:50.727Z,2.47
2018-03-28T09:08:19.617Z,1.83
2018-03-28T09:10:48.415Z,2.03
2018-03-28T09:13:17.214Z,1.80
2018-03-28T09:15:46.098Z,1.73
2018-03-28T09:18:14.910Z,1.80
2018-03-28T09:20:43.706Z,1.70
2018-03-28T09:23:12.506Z,1.87
2018-03-28T09:25:41.298Z,1.43
2018-03-28T09:28:10.102Z,1.60
2018-03-28T09:30:38.898Z,1.20
2018-03-28T09:33:07.688Z,1.57
2018-03-28T09:35:36.542Z,0.90
2018-03-28T09:38:05.419Z,1.47
2018-03-28T09:40:34.235Z,1.00
2018-03-28T09:43:03.108Z,0.90
2018-03-28T09:45:32.007Z,0.90
2018-03-28T09:48:00.959Z,1.07
2018-03-28T09:50:29.770Z,1.00
2018-03-28T09:52:58.586Z,1.00
2018-03-28T09:55:27.384Z,1.00
2018-03-28T09:57:56.190Z,1.10
2018-03-28T10:00:26.760Z,1.00
2018-03-28T10:03:01.454Z,1.43
2018-03-28T10:05:36.005Z,1.00
2018-03-28T10:08:04.802Z,0.93
2018-03-28T10:10:33.652Z,1.47
2018-03-28T10:13:02.463Z,19.13
2018-03-28T10:15:31.349Z,2.13
2018-03-28T10:18:00.159Z,0.90
2018-03-28T10:20:28.955Z,0.90
2018-03-28T10:22:57.768Z,0.70
2018-03-28T10:25:26.582Z,0.90
2018-03-28T10:27:55.390Z,0.80
2018-03-28T10:30:24.186Z,0.90
2018-03-28T10:32:52.998Z,0.70
2018-03-28T10:35:21.792Z,0.80
2018-03-28T10:37:50.598Z,0.80
2018-03-28T10:40:19.470Z,0.90
2018-03-28T10:42:48.778Z,0.50
2018-03-28T10:45:17.567Z,0.80
2018-03-28T10:47:46.374Z,0.80
2018-03-28T10:50:15.254Z,1.50
2018-03-28T10:52:44.051Z,1.30
2018-03-28T10:55:12.887Z,0.93
2018-03-28T10:57:41.712Z,1.13
2018-03-28T11:00:10.526Z,1.00
2018-03-28T11:02:39.342Z,0.80
2018-03-28T11:05:08.134Z,1.13
2018-03-28T11:07:36.949Z,1.03
2018-03-28T11:10:05.746Z,1.00
2018-03-28T11:12:34.541Z,1.10
2018-03-28T11:15:03.332Z,1.20
2018-03-28T11:17:32.126Z,0.80
2018-03-28T11:20:00.909Z,0.80
2018-03-28T11:22:29.737Z,1.00
2018-03-28T11:24:58.559Z,1.73
2018-03-28T11:27:27.352Z,1.00
2018-03-28T11:29:56.153Z,1.00
2018-03-28T11:32:25.041Z,1.13
2018-03-28T11:34:53.822Z,1.43
2018-03-28T11:37:22.732Z,1.10
2018-03-28T11:39:51.526Z,0.90
2018-03-28T11:42:20.338Z,1.10
2018-03-28T11:44:49.151Z,1.00
2018-03-28T11:47:18.008Z,1.10
2018-03-28T11:49:46.821Z,1.77
2018-03-28T11:52:15.626Z,1.40
2018-03-28T11:54:44.415Z,1.33
2018-03-28T11:57:13.291Z,1.23
2018-03-28T11:59:42.068Z,1.40
2018-03-28T12:02:10.880Z,1.10
2018-03-28T12:04:39.827Z,1.20
2018-03-28T12:07:08.570Z,1.30
2018-03-28T12:09:37.448Z,1.03
2018-03-28T12:12:06.324Z,1.23
2018-03-28T12:14:35.133Z,1.10
2018-03-28T12:17:03.935Z,1.10
2018-03-28T12:19:32.718Z,1.30
2018-03-28T12:22:01.499Z,1.10
2018-03-28T12:24:30.305Z,1.40
2018-03-28T12:26:59.090Z,1.03
2018-03-28T12:29:27.921Z,1.87
2018-03-28T12:31:56.805Z,2.97
2018-03-28T12:34:26.626Z,5.40
2018-03-28T12:36:55.433Z,2.20
2018-03-28T12:39:24.233Z,2.60
2018-03-28T12:41:53.031Z,1.80
2018-03-28T12:44:21.828Z,3.37
2018-03-28T12:46:50.622Z,7.93
2018-03-28T12:49:19.422Z,3.70
2018-03-28T12:51:48.210Z,1.77
2018-03-28T12:54:17.034Z,1.60
2018-03-28T12:56:45.818Z,1.30
2018-03-28T12:59:14.618Z,1.10
2018-03-28T13:01:43.434Z,0.90
2018-03-28T13:04:12.241Z,1.10
2018-03-28T13:06:41.042Z,1.00
2018-03-28T13:09:09.850Z,0.80
2018-03-28T13:11:38.660Z,1.00
2018-03-28T13:14:07.443Z,0.90
2018-03-28T13:16:36.266Z,0.77
2018-03-28T13:19:05.083Z,0.83
2018-03-28T13:21:33.867Z,0.80
2018-03-28T13:24:02.670Z,0.90
2018-03-28T13:26:31.484Z,0.67
2018-03-28T13:29:00.278Z,0.90
2018-03-28T13:31:29.200Z,1.30
2018-03-28T13:33:58.052Z,0.70
2018-03-28T13:36:26.873Z,0.50
2018-03-28T13:38:55.686Z,0.70
2018-03-28T13:41:24.479Z,0.70
2018-03-28T13:43:53.285Z,0.60
2018-03-28T13:46:22.120Z,0.70
2018-03-28T13:48:50.925Z,0.70
2018-03-28T13:51:20.528Z,0.67
2018-03-28T13:53:49.410Z,0.50
2018-03-28T13:56:18.226Z,0.60
2018-03-28T13:58:47.018Z,0.50
2018-03-28T14:01:15.838Z,0.80
2018-03-28T14:03:44.623Z,0.70
2018-03-28T14:06:13.435Z,0.83
2018-03-28T14:08:42.242Z,0.70
2018-03-28T14:11:11.049Z,0.80
2018-03-28T14:13:39.960Z,0.90
2018-03-28T14:16:08.774Z,0.80
2018-03-28T14:18:37.562Z,0.80
2018-03-28T14:21:06.378Z,1.00
2018-03-28T14:23:35.175Z,0.90
2018-03-28T14:26:03.984Z,0.80
2018-03-28T14:28:32.797Z,1.00
2018-03-28T14:31:01.602Z,0.80
2018-03-28T14:33:30.579Z,0.80
2018-03-28T14:35:59.381Z,0.87
2018-03-28T14:38:28.200Z,1.00
2018-03-28T14:40:57.090Z,0.90
2018-03-28T14:43:25.905Z,1.00
2018-03-28T14:45:54.763Z,0.80
2018-03-28T14:48:23.554Z,0.70
2018-03-28T14:50:52.466Z,0.87
2018-03-28T14:53:21.289Z,0.80
2018-03-28T14:55:50.168Z,0.70
2018-03-28T14:58:19.055Z,1.00
2018-03-28T15:00:47.843Z,0.80
2018-03-28T15:03:16.651Z,0.80
2018-03-28T15:05:45.537Z,1.00
2018-03-28T15:08:14.430Z,1.00
2018-03-28T15:10:43.243Z,1.10
2018-03-28T15:13:12.158Z,1.00
2018-03-28T15:15:40.910Z,0.93
2018-03-28T15:18:09.807Z,0.93
2018-03-28T15:20:38.611Z,1.03
2018-03-28T15:23:07.474Z,0.80
2018-03-28T15:25:36.247Z,0.70
2018-03-28T15:28:05.063Z,0.90
2018-03-28T15:30:33.894Z,1.10
2018-03-28T15:33:02.709Z,0.90
2018-03-28T15:35:31.577Z,0.70
2018-03-28T15:38:00.473Z,0.77
2018-03-28T15:40:29.358Z,0.73
2018-03-28T15:42:58.179Z,0.70
2018-03-28T15:45:27.038Z,0.80
2018-03-28T15:47:55.873Z,0.77
2018-03-28T15:50:24.671Z,0.57
2018-03-28T15:52:53.535Z,0.60
2018-03-28T15:55:22.332Z,0.57
2018-03-28T15:57:51.215Z,0.70
2018-03-28T16:00:20.016Z,0.60
2018-03-28T16:02:48.836Z,0.80
2018-03-28T16:05:17.626Z,0.67
2018-03-28T16:07:46.406Z,0.60
2018-03-28T16:10:15.291Z,0.80
2018-03-28T16:12:44.100Z,0.70
2018-03-28T16:15:12.894Z,1.10
2018-03-28T16:17:41.700Z,0.90
2018-03-28T16:20:10.498Z,0.90
2018-03-28T16:22:39.326Z,0.80
2018-03-28T16:25:08.146Z,0.80
2018-03-28T16:27:36.948Z,0.73
2018-03-28T16:30:05.758Z,0.70
2018-03-28T16:32:34.560Z,0.90
2018-03-28T16:35:03.354Z,0.70
2018-03-28T16:37:32.147Z,0.70
2018-03-28T16:40:01.006Z,0.80
2018-03-28T16:42:29.834Z,0.90
2018-03-28T16:44:58.699Z,1.00
2018-03-28T16:47:27.505Z,0.90
2018-03-28T16:49:56.407Z,0.90
2018-03-28T16:52:25.273Z,0.70
2018-03-28T16:54:54.132Z,0.93
2018-03-28T16:57:22.935Z,0.60
2018-03-28T16:59:51.727Z,0.70
2018-03-28T17:02:20.524Z,1.00
2018-03-28T17:04:49.471Z,0.60
2018-03-28T17:07:18.263Z,1.47
2018-03-28T17:09:47.023Z,1.10
2018-03-28T17:12:15.832Z,0.83
2018-03-28T17:14:44.714Z,0.80
2018-03-28T17:17:13.612Z,0.80
2018-03-28T17:19:42.390Z,0.87
2018-03-28T17:22:11.188Z,0.83
2018-03-28T17:24:39.991Z,0.83
2018-03-28T17:27:08.798Z,0.70
2018-03-28T17:29:37.994Z,0.90
2018-03-28T17:32:06.795Z,1.00
2018-03-28T17:34:35.609Z,0.80
2018-03-28T17:37:04.434Z,1.27
2018-03-28T17:39:33.227Z,11.73
2018-03-28T17:42:02.030Z,28.67
2018-03-28T17:44:30.848Z,5.77
2018-03-28T17:46:59.656Z,6.07
2018-03-28T17:49:29.245Z,5.10
2018-03-28T17:51:58.068Z,4.00
2018-03-28T17:54:26.963Z,7.40
2018-03-28T17:59:31.161Z,3.77
2018-03-28T18:02:00.003Z,1.30
2018-03-28T18:04:28.808Z,1.00
2018-03-28T18:06:57.609Z,1.13
2018-03-28T18:09:26.383Z,0.90
2018-03-28T18:11:55.196Z,1.00
2018-03-28T18:14:24.010Z,2.20
2018-03-28T18:16:52.811Z,1.20
2018-03-28T18:19:21.875Z,0.80
2018-03-28T18:21:50.751Z,1.40
2018-03-28T18:24:19.547Z,0.60
2018-03-28T18:26:48.376Z,0.60
2018-03-28T18:29:17.221Z,1.00
2018-03-28T18:31:46.100Z,1.43
2018-03-28T18:34:14.906Z,1.33
2018-03-28T18:36:43.792Z,2.23
2018-03-28T18:39:12.583Z,1.83
2018-03-28T18:41:41.426Z,1.17
2018-03-28T18:44:10.283Z,0.70
2018-03-28T18:46:39.076Z,0.80
2018-03-28T18:49:07.874Z,1.10
2018-03-28T18:51:36.662Z,2.70
2018-03-28T18:54:05.467Z,3.00
2018-03-28T18:56:34.250Z,4.43
2018-03-28T18:59:03.067Z,1.23
2018-03-28T19:01:31.923Z,2.53
2018-03-28T19:04:00.737Z,5.47
2018-03-28T19:06:29.533Z,3.17
2018-03-28T19:08:58.363Z,4.23
2018-03-28T19:11:27.197Z,2.60
2018-03-28T19:13:56.110Z,1.40
2018-03-28T19:16:24.900Z,1.50
2018-03-28T19:18:53.693Z,1.03
2018-03-28T19:21:22.501Z,0.60
2018-03-28T19:23:51.312Z,0.70
2018-03-28T19:26:20.163Z,1.00
2018-03-28T19:28:48.978Z,0.77
2018-03-28T19:31:17.792Z,0.60
2018-03-28T19:33:46.607Z,0.70
2018-03-28T19:36:15.418Z,0.80
2018-03-28T19:38:44.227Z,0.83
2018-03-28T19:41:13.034Z,0.67
2018-03-28T19:43:41.830Z,0.60
2018-03-28T19:46:10.629Z,0.60
2018-03-28T19:48:39.465Z,0.70
2018-03-28T19:51:08.277Z,0.67
2018-03-28T19:53:37.090Z,0.90
2018-03-28T19:56:05.896Z,1.00
2018-03-28T19:58:34.690Z,0.90
2018-03-28T20:01:03.490Z,0.73
2018-03-28T20:03:32.578Z,0.70
2018-03-28T20:06:01.364Z,0.90
2018-03-28T20:08:30.253Z,0.90
2018-03-28T20:10:59.045Z,0.90
2018-03-28T20:13:27.946Z,0.87
2018-03-28T20:15:56.864Z,1.20
2018-03-28T20:18:25.673Z,0.93
2018-03-28T20:20:54.526Z,0.77
2018-03-28T20:23:23.420Z,0.83
2018-03-28T20:25:52.198Z,0.70
2018-03-28T20:28:21.007Z,0.63
2018-03-28T20:30:49.826Z,1.07
2018-03-28T20:33:18.694Z,0.93
2018-03-28T20:35:47.503Z,1.10
2018-03-28T20:38:16.386Z,0.73
2018-03-28T20:40:45.173Z,0.90
2018-03-28T20:43:13.984Z,0.80
2018-03-28T20:45:42.793Z,0.63
2018-03-28T20:48:11.688Z,0.80
2018-03-28T20:50:40.431Z,0.70
2018-03-28T20:53:09.247Z,0.60
2018-03-28T20:55:38.134Z,0.50
2018-03-28T20:58:06.926Z,0.47
2018-03-28T21:00:35.730Z,0.60
2018-03-28T21:03:04.516Z,0.50
2018-03-28T21:05:33.327Z,0.70
2018-03-28T21:08:02.212Z,1.00
2018-03-28T21:10:31.027Z,0.80
2018-03-28T21:12:59.962Z,0.80
2018-03-28T21:15:28.776Z,0.80
2018-03-28T21:17:57.595Z,0.77
2018-03-28T21:20:26.410Z,0.57
2018-03-28T21:22:55.218Z,0.63
2018-03-28T21:25:24.016Z,0.80
2018-03-28T21:27:52.839Z,0.80
2018-03-28T21:30:21.698Z,0.70
2018-03-28T21:32:50.546Z,0.60
2018-03-28T21:35:19.362Z,0.70
2018-03-28T21:37:48.154Z,0.73
2018-03-28T21:40:16.954Z,0.60
2018-03-28T21:42:45.767Z,0.70
2018-03-28T21:45:14.600Z,0.70
2018-03-28T21:47:43.407Z,0.70
2018-03-28T21:50:12.306Z,0.70
2018-03-28T21:52:41.200Z,0.50
2018-03-28T21:55:10.003Z,0.80
2018-03-28T21:57:38.812Z,0.60
2018-03-28T22:00:07.688Z,0.50
2018-03-28T22:02:36.502Z,0.53
2018-03-28T22:05:05.295Z,0.70
2018-03-28T22:07:34.109Z,0.60
2018-03-28T22:10:02.913Z,0.70
2018-03-28T22:12:31.690Z,0.70
2018-03-28T22:15:00.510Z,0.77
2018-03-28T22:17:29.308Z,0.77
2018-03-28T22:19:58.114Z,0.87
2018-03-28T22:22:27.025Z,1.20
2018-03-28T22:24:55.911Z,1.30
2018-03-28T22:27:24.811Z,1.67
2018-03-28T22:29:53.630Z,1.50
2018-03-28T22:32:22.438Z,1.43
2018-03-28T22:34:51.306Z,1.40
2018-03-28T22:37:20.112Z,1.50
2018-03-28T22:39:48.926Z,1.30
2018-03-28T22:42:17.742Z,1.40
2018-03-28T22:44:46.543Z,1.43
2018-03-28T22:47:15.362Z,1.50
2018-03-28T22:49:44.182Z,1.33
2018-03-28T22:52:12.979Z,1.30
2018-03-28T22:54:41.766Z,1.40
2018-03-28T22:57:10.635Z,1.27
2018-03-28T22:59:39.449Z,1.40
2018-03-28T23:02:08.955Z,1.40
2018-03-28T23:04:37.750Z,1.50
2018-03-28T23:07:06.549Z,1.50
2018-03-28T23:09:35.427Z,1.67
2018-03-28T23:12:04.235Z,1.60
2018-03-28T23:14:33.034Z,1.57
2018-03-28T23:17:01.834Z,1.67
2018-03-28T23:19:30.630Z,1.67
2018-03-28T23:21:59.503Z,1.67
2018-03-28T23:24:28.293Z,1.40
2018-03-28T23:26:57.174Z,1.50
2018-03-28T23:29:25.982Z,1.30
2018-03-28T23:31:54.866Z,1.50
2018-03-28T23:34:23.663Z,1.63
2018-03-28T23:36:52.457Z,1.50
2018-03-28T23:39:21.269Z,1.40
2018-03-28T23:41:50.050Z,1.67
2018-03-28T23:44:18.854Z,1.50
2018-03-28T23:46:47.650Z,1.60
2018-03-28T23:49:16.466Z,1.53
2018-03-28T23:51:45.250Z,1.80
2018-03-28T23:54:14.058Z,1.73
2018-03-28T23:56:42.855Z,1.50
2018-03-28T23:59:11.663Z,1.70
